Time;durP1;ratioP1;P1;durP2;ratioP2;P2;SDS_P1;SDS_P2;PMS_P1;PMS_P2;Temp;Humidity;BMP_temperature;BMP_pressure;BME280_temperature;BME280_humidity;BME280_pressure;Samples;Min_cycle;Max_cycle;Signal;HPM_P1;HPM_P2
2022/05/09 00:00:28;;;;;;;8.95;5.97;;;;;;;10.71;100.00;99719.19;5006700;28;20073;-78
2022/05/09 00:02:55;;;;;;;8.43;6.45;;;;;;;10.76;100.00;99720.38;4990015;28;20054;-78
2022/05/09 00:05:24;;;;;;;10.57;6.30;;;;;;;10.54;100.00;99693.91;5000850;28;20049;-78
2022/05/09 00:07:53;;;;;;;10.15;6.30;;;;;;;10.60;100.00;99694.03;4998241;28;20057;-78
2022/05/09 00:10:22;;;;;;;13.68;6.30;;;;;;;10.56;100.00;99703.56;5005779;28;20050;-78
2022/05/09 00:12:48;;;;;;;11.63;5.93;;;;;;;10.75;100.00;99723.28;4998283;28;20429;-78
2022/05/09 00:15:16;;;;;;;8.52;6.15;;;;;;;10.55;100.00;99701.88;5003350;28;20050;-78
2022/05/09 00:17:45;;;;;;;6.75;5.18;;;;;;;10.72;100.00;99726.31;5003729;28;20099;-78
2022/05/09 00:20:12;;;;;;;6.93;5.38;;;;;;;10.61;100.00;99684.88;5002485;28;20052;-78
2022/05/09 00:22:48;;;;;;;10.95;6.13;;;;;;;10.88;100.00;99726.28;4994871;28;20066;-78
2022/05/09 00:25:17;;;;;;;8.80;5.38;;;;;;;10.44;100.00;99694.06;5002066;28;20041;-78
2022/05/09 00:27:44;;;;;;;8.32;5.85;;;;;;;10.34;100.00;99690.66;5006305;28;20056;-78
2022/05/09 00:30:12;;;;;;;10.63;6.15;;;;;;;10.38;100.00;99703.75;5003396;28;20050;-78
2022/05/09 00:32:38;;;;;;;10.10;6.30;;;;;;;10.39;100.00;99721.75;5001578;28;20058;-76
2022/05/09 00:35:07;;;;;;;8.57;6.40;;;;;;;10.29;100.00;99704.72;5005966;28;20077;-78
2022/05/09 00:37:34;;;;;;;7.97;6.07;;;;;;;10.21;100.00;99702.03;4998300;28;20388;-76
2022/05/09 00:40:01;;;;;;;11.32;6.93;;;;;;;10.41;100.00;99730.56;5001087;28;20493;-76
2022/05/09 00:42:28;;;;;;;13.15;5.95;;;;;;;10.09;100.00;99686.06;5009258;28;20041;-76
2022/05/09 00:44:56;;;;;;;7.63;5.97;;;;;;;10.06;100.00;99696.41;5001886;28;20054;-76
2022/05/09 00:47:23;;;;;;;8.85;6.35;;;;;;;10.12;100.00;99738.34;5000633;28;20408;-76
2022/05/09 00:49:54;;;;;;;10.52;6.22;;;;;;;9.94;100.00;99698.59;5002065;28;20046;-76
2022/05/09 00:52:23;;;;;;;10.15;6.35;;;;;;;10.12;100.00;99725.63;4997593;28;20070;-78
2022/05/09 00:54:54;;;;;;;7.13;5.68;;;;;;;9.88;100.00;99699.28;4998041;28;20046;-76
2022/05/09 00:57:24;;;;;;;9.82;6.22;;;;;;;9.92;100.00;99722.34;5011910;28;20058;-76
2022/05/09 00:59:59;;;;;;;10.95;6.63;;;;;;;9.93;100.00;99729.50;5010793;28;20057;-78
2022/05/09 01:02:28;;;;;;;9.55;6.32;;;;;;;10.07;100.00;99728.84;5003474;28;20054;-78
2022/05/09 01:04:57;;;;;;;9.02;6.40;;;;;;;9.86;100.00;99688.59;5003823;28;20098;-76
2022/05/09 01:07:25;;;;;;;8.30;5.90;;;;;;;10.00;100.00;99732.41;5010142;28;20053;-76
2022/05/09 01:09:52;;;;;;;12.13;6.35;;;;;;;9.74;100.00;99717.09;5001207;28;20065;-78
2022/05/09 01:12:23;;;;;;;6.78;6.03;;;;;;;9.81;100.00;99725.41;5007223;28;20489;-76
2022/05/09 01:14:50;;;;;;;13.50;6.72;;;;;;;9.57;100.00;99699.88;5004481;28;20086;-76
2022/05/09 01:17:19;;;;;;;11.25;5.47;;;;;;;9.55;100.00;99704.63;5008108;28;20060;-76
2022/05/09 01:19:47;;;;;;;8.75;6.30;;;;;;;9.42;100.00;99698.81;5009053;28;20064;-75
2022/05/09 01:22:25;;;;;;;10.35;6.70;;;;;;;9.43;100.00;99700.53;4997767;28;20046;-76
2022/05/09 01:24:52;;;;;;;9.02;6.63;;;;;;;9.52;100.00;99711.22;5000890;28;20061;-76
2022/05/09 01:27:19;;;;;;;10.77;6.97;;;;;;;9.56;100.00;99707.19;5009869;28;20050;-76
2022/05/09 01:29:52;;;;;;;7.65;6.20;;;;;;;9.69;100.00;99733.00;5000748;28;20050;-76
2022/05/09 01:32:25;;;;;;;7.70;6.32;;;;;;;9.50;100.00;99699.69;5003784;28;20072;-75
2022/05/09 01:34:56;;;;;;;8.52;6.93;;;;;;;9.62;100.00;99716.53;5009431;28;20064;-76
2022/05/09 01:37:25;;;;;;;9.13;6.20;;;;;;;9.44;100.00;99697.66;5009884;28;20416;-76
2022/05/09 01:39:52;;;;;;;11.20;6.85;;;;;;;9.42;100.00;99691.50;4998653;28;20493;-76
2022/05/09 01:42:18;;;;;;;8.75;6.50;;;;;;;9.37;100.00;99697.44;5001631;28;20057;-76
2022/05/09 01:44:45;;;;;;;15.55;7.47;;;;;;;9.52;100.00;99703.09;5009417;28;20061;-76
2022/05/09 01:49:55;;;;;;;12.75;7.80;;;;;;;9.45;100.00;99693.91;5065043;28;20224;-76
2022/05/09 01:52:23;;;;;;;9.80;7.32;;;;;;;9.45;100.00;99721.03;5012085;28;20054;-76
2022/05/09 01:54:50;;;;;;;9.80;7.30;;;;;;;9.57;100.00;99719.75;5000357;28;20058;-76
2022/05/09 01:57:17;;;;;;;10.38;7.15;;;;;;;9.63;100.00;99722.81;5045392;28;20517;-76
2022/05/09 01:59:44;;;;;;;9.68;7.40;;;;;;;9.39;100.00;99716.25;5018800;28;20046;-75
2022/05/09 02:02:13;;;;;;;9.00;7.03;;;;;;;9.63;100.00;99725.53;5000548;28;20053;-75
2022/05/09 02:04:40;;;;;;;9.70;6.80;;;;;;;9.45;100.00;99720.19;5005980;28;20068;-76
2022/05/09 02:07:09;;;;;;;11.80;7.10;;;;;;;9.36;100.00;99731.03;5006579;28;20081;-76
2022/05/09 02:09:40;;;;;;;9.55;7.00;;;;;;;9.28;100.00;99732.84;5007733;28;20050;-75
2022/05/09 02:12:08;;;;;;;11.07;7.20;;;;;;;9.10;100.00;99719.38;5008432;28;20065;-76
2022/05/09 02:14:35;;;;;;;11.05;7.15;;;;;;;8.93;100.00;99700.31;5000547;28;20521;-75
2022/05/09 02:17:02;;;;;;;10.13;6.88;;;;;;;9.11;100.00;99743.63;4997725;28;20092;-75
2022/05/09 02:19:29;;;;;;;8.75;6.22;;;;;;;9.01;100.00;99729.31;5003794;28;20050;-75
2022/05/09 02:21:56;;;;;;;10.57;6.78;;;;;;;8.86;100.00;99705.50;5004685;28;20050;-75
2022/05/09 02:24:22;;;;;;;8.02;6.85;;;;;;;8.85;100.00;99720.09;5008369;28;20050;-76
2022/05/09 02:26:50;;;;;;;9.32;6.75;;;;;;;8.85;100.00;99709.25;5007349;28;20057;-75
2022/05/09 02:29:17;;;;;;;13.18;7.32;;;;;;;8.75;100.00;99707.66;5009166;28;20050;-75
2022/05/09 02:31:43;;;;;;;9.18;6.90;;;;;;;9.01;100.00;99737.47;5000352;28;20050;-75
2022/05/09 02:34:10;;;;;;;12.80;8.00;;;;;;;9.10;100.00;99730.22;5008383;28;20531;-75
2022/05/09 02:36:36;;;;;;;10.70;6.85;;;;;;;8.83;100.00;99716.66;4999456;28;20053;-75
2022/05/09 02:39:03;;;;;;;9.82;6.93;;;;;;;8.88;100.00;99718.06;4999321;28;20049;-76
2022/05/09 02:41:31;;;;;;;16.40;7.60;;;;;;;8.71;100.00;99719.81;5007524;28;20061;-75
2022/05/09 02:43:59;;;;;;;11.65;6.72;;;;;;;8.84;100.00;99744.66;5008293;28;20046;-76
2022/05/09 02:46:26;;;;;;;10.88;7.68;;;;;;;8.96;100.00;99747.94;5000872;28;20133;-78
2022/05/09 02:48:53;;;;;;;9.32;6.57;;;;;;;8.86;100.00;99743.47;4992782;28;20042;-75
2022/05/09 02:51:19;;;;;;;11.85;6.95;;;;;;;8.58;100.00;99714.81;5000284;28;20081;-75
2022/05/09 02:53:46;;;;;;;11.73;7.47;;;;;;;8.63;100.00;99707.06;5004774;28;20061;-75
2022/05/09 02:56:12;;;;;;;10.48;7.68;;;;;;;8.62;100.00;99708.06;5005982;28;20050;-76
2022/05/09 02:58:39;;;;;;;12.15;7.57;;;;;;;8.55;100.00;99721.41;5008912;28;20060;-75
2022/05/09 03:01:07;;;;;;;12.98;7.35;;;;;;;8.66;100.00;99729.28;4997303;28;20050;-75
2022/05/09 03:06:17;;;;;;;11.45;7.40;;;;;;;8.61;100.00;99717.19;5001456;28;20083;-76
2022/05/09 03:08:44;;;;;;;11.10;7.40;;;;;;;8.74;100.00;99731.19;4999557;28;20455;-76
2022/05/09 03:11:11;;;;;;;11.00;7.80;;;;;;;8.68;100.00;99721.81;5006342;28;20111;-75
2022/05/09 03:13:39;;;;;;;10.38;7.53;;;;;;;8.53;100.00;99717.16;5005270;28;20062;-78
2022/05/09 03:16:08;;;;;;;11.60;7.85;;;;;;;8.61;100.00;99723.50;5007608;28;20459;-75
2022/05/09 03:18:35;;;;;;;9.77;7.20;;;;;;;8.61;100.00;99726.19;5007989;28;20080;-75
2022/05/09 03:21:02;;;;;;;10.20;7.28;;;;;;;8.70;100.00;99737.94;5005271;28;20404;-75
2022/05/09 03:23:28;;;;;;;9.80;7.13;;;;;;;8.58;100.00;99723.81;5006710;28;20157;-78
2022/05/09 03:25:56;;;;;;;8.38;6.88;;;;;;;8.40;100.00;99707.56;5008247;28;20291;-76
2022/05/09 03:28:25;;;;;;;9.05;7.10;;;;;;;8.47;100.00;99727.59;5006862;28;20042;-75
2022/05/09 03:30:53;;;;;;;10.02;7.30;;;;;;;8.43;100.00;99725.34;5003493;28;20046;-78
2022/05/09 03:33:22;;;;;;;10.43;7.53;;;;;;;8.47;100.00;99727.59;5000617;28;20045;-78
2022/05/09 03:35:49;;;;;;;13.02;7.45;;;;;;;8.37;100.00;99724.13;4996745;28;20050;-75
2022/05/09 03:38:15;;;;;;;8.68;7.22;;;;;;;8.44;100.00;99727.91;5007907;28;20054;-75
2022/05/09 03:40:42;;;;;;;10.07;7.05;;;;;;;8.55;100.00;99742.22;4999219;28;20050;-76
2022/05/09 03:43:10;;;;;;;11.05;7.03;;;;;;;8.26;100.00;99721.66;5006538;28;20061;-75
2022/05/09 03:45:39;;;;;;;10.35;6.65;;;;;;;8.32;100.00;99740.84;5004011;28;20056;-75
2022/05/09 03:48:06;;;;;;;9.13;6.55;;;;;;;8.11;100.00;99710.50;5007336;28;20065;-75
2022/05/09 03:50:34;;;;;;;10.98;6.80;;;;;;;8.14;100.00;99716.50;5006644;28;20050;-75
2022/05/09 03:53:00;;;;;;;12.00;7.43;;;;;;;8.29;100.00;99751.13;5007011;28;20056;-75
2022/05/09 03:55:27;;;;;;;9.27;6.75;;;;;;;8.21;100.00;99732.13;5090671;28;20048;-75
2022/05/09 03:57:55;;;;;;;8.00;5.95;;;;;;;8.25;100.00;99741.59;5049058;28;20436;-75
2022/05/09 04:00:27;;;;;;;8.35;6.15;;;;;;;8.25;100.00;99753.31;5004486;28;20183;-75
2022/05/09 04:02:54;;;;;;;11.27;7.63;;;;;;;8.08;100.00;99717.09;5006995;28;20052;-76
2022/05/09 04:05:21;;;;;;;13.70;8.43;;;;;;;8.16;100.00;99740.72;5002914;28;20054;-75
2022/05/09 04:07:52;;;;;;;11.40;8.18;;;;;;;8.09;100.00;99724.22;4998973;28;20058;-75
2022/05/09 04:10:19;;;;;;;;;;;;;;;8.15;100.00;99760.66;5008443;28;20335;-75
2022/05/09 04:12:45;;;;;;;12.48;7.53;;;;;;;8.22;100.00;99760.88;5004657;28;19928;-75
2022/05/09 04:17:57;;;;;;;8.38;6.75;;;;;;;7.92;100.00;99739.47;5009040;28;20049;-75
2022/05/09 04:20:25;;;;;;;12.77;7.10;;;;;;;7.98;100.00;99748.81;5008508;28;20405;-75
2022/05/09 04:22:54;;;;;;;11.40;6.43;;;;;;;8.08;100.00;99755.00;5008181;28;20382;-75
2022/05/09 04:25:22;;;;;;;10.60;7.20;;;;;;;8.12;100.00;99750.16;4997927;28;20261;-75
2022/05/09 04:27:48;;;;;;;11.20;7.18;;;;;;;8.00;100.00;99730.56;5001995;28;20532;-75
2022/05/09 04:30:15;;;;;;;10.43;7.57;;;;;;;8.08;100.00;99746.03;5001558;28;20050;-76
2022/05/09 04:32:42;;;;;;;9.63;7.65;;;;;;;8.10;100.00;99765.66;5010407;28;20050;-75
2022/05/09 04:35:11;;;;;;;9.93;7.25;;;;;;;8.11;100.00;99746.59;5008396;28;20052;-77
2022/05/09 04:37:39;;;;;;;11.10;7.32;;;;;;;8.31;100.00;99765.41;5045603;28;20076;-75
2022/05/09 04:40:09;;;;;;;7.97;6.32;;;;;;;8.14;100.00;99734.56;5010737;28;20050;-76
2022/05/09 04:42:35;;;;;;;10.93;8.05;;;;;;;8.27;100.00;99740.47;5001245;28;20493;-75
2022/05/09 04:45:02;;;;;;;9.73;7.15;;;;;;;8.55;100.00;99767.50;5010085;28;20060;-76
2022/05/09 04:47:28;;;;;;;11.63;7.53;;;;;;;8.48;100.00;99742.88;5001259;28;20250;-75
2022/05/09 04:49:55;;;;;;;8.77;7.57;;;;;;;8.63;100.00;99755.84;5006950;28;20062;-75
2022/05/09 04:52:21;;;;;;;9.45;7.32;;;;;;;8.70;100.00;99766.91;5005329;28;20053;-76
2022/05/09 04:54:48;;;;;;;9.98;7.30;;;;;;;8.75;100.00;99761.88;5009352;28;20050;-76
2022/05/09 04:57:16;;;;;;;11.60;7.60;;;;;;;8.80;100.00;99767.66;5010361;28;20253;-75
2022/05/09 04:59:42;;;;;;;13.15;7.43;;;;;;;8.82;100.00;99761.09;5008612;28;20056;-75
2022/05/09 05:02:09;;;;;;;9.77;7.32;;;;;;;8.87;100.00;99760.59;4999549;28;20046;-75
2022/05/09 05:04:35;;;;;;;12.52;7.40;;;;;;;8.95;100.00;99757.09;5005435;28;20054;-78
2022/05/09 05:07:01;;;;;;;10.68;7.30;;;;;;;9.18;100.00;99770.94;5008498;28;20403;-75
2022/05/09 05:09:30;;;;;;;8.88;7.05;;;;;;;9.14;100.00;99770.44;5008466;28;20052;-75
2022/05/09 05:11:57;;;;;;;10.60;7.78;;;;;;;9.24;100.00;99773.00;5010107;28;20053;-76
2022/05/09 05:14:25;;;;;;;10.20;7.72;;;;;;;9.46;100.00;99776.19;5007517;28;20124;-76
2022/05/09 05:17:00;;;;;;;9.32;7.57;;;;;;;9.49;100.00;99786.72;5009376;28;20529;-75
2022/05/09 05:19:27;;;;;;;10.10;7.75;;;;;;;9.90;100.00;99789.56;5008464;28;20045;-75
2022/05/09 05:21:54;;;;;;;8.30;7.03;;;;;;;10.09;100.00;99758.56;5008968;28;20052;-76
2022/05/09 05:24:21;;;;;;;9.85;7.13;;;;;;;10.51;100.00;99745.88;4995706;28;20050;-78
2022/05/09 05:26:47;;;;;;;12.65;7.45;;;;;;;11.11;100.00;99775.38;5006387;28;20057;-76
2022/05/09 05:29:15;;;;;;;8.82;7.13;;;;;;;11.44;100.00;99760.81;5004983;28;20062;-76
2022/05/09 05:31:43;;;;;;;8.95;6.65;;;;;;;11.71;100.00;99745.03;5005360;28;20595;-76
2022/05/09 05:34:09;;;;;;;9.75;6.95;;;;;;;11.99;100.00;99759.06;5008120;28;20474;-76
2022/05/09 05:36:36;;;;;;;9.82;7.20;;;;;;;12.53;100.00;99771.81;5004769;28;20065;-76
2022/05/09 05:39:03;;;;;;;11.77;8.15;;;;;;;12.64;100.00;99757.72;5008284;28;20050;-76
2022/05/09 05:41:31;;;;;;;12.65;8.07;;;;;;;12.98;100.00;99761.84;4999930;28;20095;-76
2022/05/09 05:43:58;;;;;;;10.70;7.38;;;;;;;13.26;100.00;99769.38;5006745;28;20188;-76
2022/05/09 05:46:25;;;;;;;11.23;7.80;;;;;;;13.49;100.00;99796.66;5010076;28;20054;-76
2022/05/09 05:48:52;;;;;;;16.23;7.90;;;;;;;13.86;100.00;99789.34;5008504;28;20046;-76
2022/05/09 05:51:19;;;;;;;9.23;7.40;;;;;;;13.98;99.49;99771.44;5000617;28;20054;-76
2022/05/09 05:53:46;;;;;;;10.93;7.65;;;;;;;14.24;97.21;99791.06;5006609;28;20042;-76
2022/05/09 05:56:13;;;;;;;9.65;7.22;;;;;;;14.26;95.65;99769.84;4998609;28;20058;-76
2022/05/09 05:58:40;;;;;;;13.75;7.97;;;;;;;14.61;95.11;99792.75;5005500;28;20053;-76
2022/05/09 06:01:06;;;;;;;11.02;7.93;;;;;;;14.49;94.58;99786.91;5005962;28;20068;-76
2022/05/09 06:03:33;;;;;;;13.55;7.43;;;;;;;14.57;93.53;99798.78;5008853;28;20054;-76
2022/05/09 06:06:01;;;;;;;11.00;7.60;;;;;;;14.83;91.24;99763.47;5000058;28;20053;-76
2022/05/09 06:08:27;;;;;;;10.23;7.18;;;;;;;14.92;90.32;99769.66;5003838;28;20054;-76
2022/05/09 06:10:54;;;;;;;10.70;8.00;;;;;;;15.36;88.19;99795.03;5007209;28;20058;-76
2022/05/09 06:13:21;;;;;;;15.20;9.05;;;;;;;15.44;87.59;99778.41;5006873;28;20050;-77
2022/05/09 06:15:47;;;;;;;14.25;8.65;;;;;;;15.51;87.75;99800.41;4999724;28;20046;-76
2022/05/09 06:18:16;;;;;;;9.90;7.90;;;;;;;15.86;87.67;99806.72;5008468;28;20061;-77
2022/05/09 06:20:44;;;;;;;14.27;7.63;;;;;;;15.74;85.71;99787.22;5004170;28;20517;-77
2022/05/09 06:23:16;;;;;;;10.30;7.85;;;;;;;15.98;86.36;99778.72;5009946;28;20515;-76
2022/05/09 06:25:46;;;;;;;9.15;7.22;;;;;;;16.38;85.00;99806.25;5009611;28;20405;-77
2022/05/09 06:28:15;;;;;;;10.25;7.20;;;;;;;16.58;82.06;99781.63;5006970;28;20046;-77
2022/05/09 06:30:43;;;;;;;10.13;7.00;;;;;;;16.75;81.54;99793.88;5010595;28;20046;-77
2022/05/09 06:33:10;;;;;;;10.13;7.57;;;;;;;16.78;82.46;99793.44;5032173;28;20064;-77
2022/05/09 06:35:41;;;;;;;10.82;7.35;;;;;;;16.52;82.94;99779.72;5006141;28;20050;-77
2022/05/09 06:38:08;;;;;;;10.82;7.85;;;;;;;17.28;80.20;99806.78;5006199;28;20489;-77
2022/05/09 06:40:36;;;;;;;10.77;6.88;;;;;;;17.42;80.16;99804.88;5007878;28;20046;-77
2022/05/09 06:43:03;;;;;;;12.82;6.95;;;;;;;17.49;77.99;99788.34;5006994;28;20605;-77
2022/05/09 06:45:31;;;;;;;9.55;6.70;;;;;;;17.76;75.31;99789.13;5005582;28;20075;-78
2022/05/09 06:47:58;;;;;;;12.05;7.18;;;;;;;18.02;75.11;99781.84;5005411;28;20054;-77
2022/05/09 06:50:27;;;;;;;9.15;7.22;;;;;;;18.08;73.90;99786.50;5023866;28;20057;-77
2022/05/09 06:52:53;;;;;;;7.95;6.43;;;;;;;18.32;74.56;99795.03;5006960;28;20053;-77
2022/05/09 06:55:21;;;;;;;10.50;6.85;;;;;;;18.26;74.14;99791.28;5001854;28;20413;-77
2022/05/09 06:57:50;;;;;;;9.20;7.00;;;;;;;18.44;73.85;99797.94;5000895;28;20095;-77
2022/05/09 07:00:19;;;;;;;10.00;6.40;;;;;;;18.71;73.82;99802.22;5005129;28;20386;-77
2022/05/09 07:02:46;;;;;;;10.00;6.53;;;;;;;18.39;74.60;99804.94;5006792;28;20504;-78
2022/05/09 07:05:16;;;;;;;8.45;6.30;;;;;;;18.74;71.44;99804.53;5011633;28;20046;-78
2022/05/09 07:07:43;;;;;;;10.68;6.03;;;;;;;18.46;73.36;99809.59;5006760;28;20049;-78
2022/05/09 07:10:11;;;;;;;7.93;6.22;;;;;;;18.65;71.94;99800.34;5008300;28;20428;-78
2022/05/09 07:12:43;;;;;;;8.82;5.95;;;;;;;18.69;71.33;99801.56;4999982;28;20057;-78
2022/05/09 07:15:12;;;;;;;10.55;6.35;;;;;;;18.89;71.52;99789.59;5000162;28;20203;-77
2022/05/09 07:17:38;;;;;;;10.70;6.03;;;;;;;19.17;69.69;99797.41;5006402;28;20085;-77
2022/05/09 07:20:06;;;;;;;9.35;6.70;;;;;;;19.18;68.86;99778.97;4998276;28;20137;-77
2022/05/09 07:22:33;;;;;;;8.63;5.90;;;;;;;18.98;69.13;99803.94;5009436;28;20046;-77
2022/05/09 07:25:02;;;;;;;8.50;5.55;;;;;;;19.46;65.88;99789.50;5006615;28;20050;-77
2022/05/09 07:27:29;;;;;;;9.52;5.40;;;;;;;19.64;65.67;99803.28;4999868;28;20049;-77
2022/05/09 07:29:55;;;;;;;10.40;5.68;;;;;;;19.44;64.61;99795.25;5004022;28;20401;-77
2022/05/09 07:32:23;;;;;;;7.70;5.40;;;;;;;19.56;68.41;99781.56;5007596;28;20061;-77
2022/05/09 07:34:51;;;;;;;6.93;5.38;;;;;;;19.88;67.94;99795.22;4999124;28;20050;-77
2022/05/09 07:37:18;;;;;;;6.70;4.80;;;;;;;19.78;67.38;99805.94;5006453;28;20458;-77
2022/05/09 07:39:44;;;;;;;5.82;4.78;;;;;;;19.21;66.36;99768.34;5021970;28;20054;-77
2022/05/09 07:42:12;;;;;;;10.90;5.15;;;;;;;19.92;65.09;99795.63;5005443;28;20053;-78
2022/05/09 07:44:38;;;;;;;7.95;5.80;;;;;;;19.61;66.46;99792.72;5006149;28;20050;-77
2022/05/09 07:47:06;;;;;;;7.40;5.20;;;;;;;20.04;66.22;99773.56;4999217;28;20447;-77
2022/05/09 07:49:34;;;;;;;7.25;5.28;;;;;;;19.37;68.10;99777.91;4999588;28;20058;-77
2022/05/09 07:52:01;;;;;;;5.82;4.75;;;;;;;20.04;63.84;99798.41;5007211;28;20489;-77
2022/05/09 07:54:27;;;;;;;8.52;4.70;;;;;;;20.21;63.33;99793.13;5005466;28;20493;-77
2022/05/09 07:56:55;;;;;;;8.00;4.90;;;;;;;19.70;63.24;99779.47;5005970;28;20144;-77
2022/05/09 07:59:21;;;;;;;6.47;4.50;;;;;;;19.61;65.80;99791.88;5006660;28;20050;-77
2022/05/09 08:01:48;;;;;;;6.57;4.28;;;;;;;19.76;65.94;99783.25;5006548;28;20413;-77
2022/05/09 08:04:15;;;;;;;7.90;4.88;;;;;;;19.74;65.40;99780.72;4998762;28;20538;-77
2022/05/09 08:06:42;;;;;;;6.55;5.00;;;;;;;19.47;67.34;99782.09;5001880;28;20060;-77
2022/05/09 08:09:09;;;;;;;5.82;4.65;;;;;;;19.38;67.45;99778.78;5007627;28;20057;-77
2022/05/09 08:11:35;;;;;;;5.43;4.60;;;;;;;19.86;66.56;99782.72;5007586;28;20060;-77
2022/05/09 08:14:02;;;;;;;6.28;4.20;;;;;;;20.06;63.36;99780.56;5005904;28;20054;-77
2022/05/09 08:16:30;;;;;;;8.32;4.78;;;;;;;19.74;65.33;99796.44;5006696;28;20046;-77
2022/05/09 08:18:58;;;;;;;9.10;4.55;;;;;;;19.50;65.21;99785.22;5007836;28;20095;-77
2022/05/09 08:21:25;;;;;;;12.25;4.78;;;;;;;19.83;68.06;99788.69;5005297;28;20106;-77
2022/05/09 08:23:53;;;;;;;7.18;4.43;;;;;;;19.90;66.66;99783.94;5004185;28;20046;-77
2022/05/09 08:26:21;;;;;;;5.95;4.63;;;;;;;19.96;64.11;99805.09;5003922;28;20060;-78
2022/05/09 08:28:48;;;;;;;6.40;4.70;;;;;;;19.84;63.44;99768.31;5012245;28;20054;-77
2022/05/09 08:31:18;;;;;;;5.70;4.72;;;;;;;19.85;63.83;99775.53;5005423;28;20050;-77
2022/05/09 08:33:45;;;;;;;;;;;;;;;20.23;65.27;99804.75;4999598;28;20125;-77
2022/05/09 08:36:11;;;;;;;5.90;5.18;;;;;;;20.39;63.67;99798.59;5001655;28;19921;-77
2022/05/09 08:38:38;;;;;;;6.80;4.60;;;;;;;20.38;62.69;99787.78;5003945;28;20065;-77
2022/05/09 08:41:11;;;;;;;8.05;4.82;;;;;;;20.34;67.89;99790.19;5013581;28;20046;-77
2022/05/09 08:44:08;;;;;;;6.22;4.53;;;;;;;20.37;66.13;99806.28;5029920;28;20050;-77
2022/05/09 08:46:44;;;;;;;6.85;5.05;;;;;;;20.29;64.02;99781.75;4996037;28;20049;-78
2022/05/09 08:49:31;;;;;;;6.53;4.97;;;;;;;20.31;63.04;99793.41;5008279;28;20054;-77
2022/05/09 08:52:08;;;;;;;7.63;5.00;;;;;;;20.06;64.29;99794.34;5007040;28;20077;-78
2022/05/09 08:54:36;;;;;;;7.07;4.47;;;;;;;20.23;65.46;99802.00;5004255;28;20058;-79
2022/05/09 08:57:09;;;;;;;9.68;5.80;;;;;;;20.32;63.01;99784.88;5008831;28;20053;-78
2022/05/09 08:59:43;;;;;;;8.32;4.72;;;;;;;20.48;62.42;99790.81;5006526;28;20493;-78
2022/05/09 09:02:15;;;;;;;5.22;4.60;;;;;;;20.42;64.32;99794.53;5010920;28;20053;-78
2022/05/09 09:04:50;;;;;;;6.95;4.97;;;;;;;20.42;63.32;99786.25;5015028;28;20049;-78
2022/05/09 09:07:32;;;;;;;8.32;4.32;;;;;;;20.30;64.56;99775.97;5011356;28;20054;-78
2022/05/09 09:10:09;;;;;;;8.48;4.75;;;;;;;20.65;63.30;99805.66;5010648;28;20069;-77
2022/05/09 09:12:53;;;;;;;7.63;4.78;;;;;;;20.62;63.39;99795.06;5004361;28;20054;-78
2022/05/09 09:15:29;;;;;;;8.05;4.80;;;;;;;20.47;62.65;99783.59;5043501;28;20322;-78
2022/05/09 09:18:10;;;;;;;5.82;4.57;;;;;;;20.92;61.07;99791.44;5005051;28;20493;-77
2022/05/09 09:20:48;;;;;;;6.25;4.50;;;;;;;20.55;61.36;99772.25;5004937;28;20050;-78
2022/05/09 09:23:37;;;;;;;6.45;4.80;;;;;;;20.66;62.54;99789.94;5004458;28;20045;-77
2022/05/09 09:26:20;;;;;;;7.77;5.27;;;;;;;20.77;61.90;99791.88;5013298;28;20050;-78
2022/05/09 09:28:53;;;;;;;6.85;4.78;;;;;;;20.71;67.16;99779.03;5011940;28;20098;-77
2022/05/09 09:31:25;;;;;;;9.15;5.75;;;;;;;20.49;63.03;99779.53;5009787;28;20056;-77
2022/05/09 09:33:58;;;;;;;6.60;4.60;;;;;;;20.71;61.81;99801.13;5006863;28;20041;-78
2022/05/09 09:36:34;;;;;;;6.13;3.75;;;;;;;20.98;57.95;99796.00;5008209;28;20038;-78
2022/05/09 09:39:08;;;;;;;8.30;4.38;;;;;;;21.12;57.22;99776.44;5009581;28;20060;-78
2022/05/09 09:41:36;;;;;;;8.45;4.00;;;;;;;21.05;55.90;99759.97;5005851;28;20056;-78
2022/05/09 09:44:10;;;;;;;6.72;4.00;;;;;;;21.01;54.34;99784.47;5007010;28;20053;-78
2022/05/09 09:47:01;;;;;;;7.97;4.50;;;;;;;21.12;57.76;99774.53;5008692;28;20181;-78
2022/05/09 09:49:29;;;;;;;5.80;3.58;;;;;;;20.62;54.36;99755.56;5003210;28;20296;-77
2022/05/09 09:51:57;;;;;;;5.90;4.10;;;;;;;20.80;54.59;99752.72;5009049;28;20401;-78
2022/05/09 09:54:27;;;;;;;4.85;3.95;;;;;;;21.16;56.21;99761.06;5000236;28;20103;-78
2022/05/09 09:56:53;;;;;;;8.48;4.50;;;;;;;21.07;54.67;99779.09;5008757;28;20053;-78
2022/05/09 10:02:43;;;;;;;4.85;3.67;;;;;;;21.52;52.65;99765.50;5002291;28;20056;-78
2022/05/09 10:05:13;;;;;;;4.72;3.70;;;;;;;21.12;53.71;99766.25;5007336;28;20046;-78
2022/05/09 10:07:43;;;;;;;7.25;3.90;;;;;;;21.17;53.10;99766.34;5016054;28;20508;-78
2022/05/09 10:10:13;;;;;;;5.45;3.70;;;;;;;21.63;52.66;99766.56;5007784;28;20519;-78
2022/05/09 10:12:42;;;;;;;4.95;3.85;;;;;;;21.89;51.80;99732.00;5007653;28;20062;-78
2022/05/09 10:15:24;;;;;;;7.07;3.97;;;;;;;22.28;53.15;99743.28;5008126;28;20049;-77
2022/05/09 10:17:53;;;;;;;5.88;3.60;;;;;;;22.55;48.07;99761.22;5008380;28;20341;-78
2022/05/09 10:20:30;;;;;;;5.97;3.63;;;;;;;22.89;51.95;99750.19;5005940;28;20042;-78
2022/05/09 10:26:01;;;;;;;7.75;3.95;;;;;;;22.95;47.49;99735.31;5006264;28;20089;-78
2022/05/09 10:28:32;;;;;;;6.30;4.18;;;;;;;22.72;50.24;99759.34;5035345;28;20551;-78
2022/05/09 10:31:10;;;;;;;7.03;3.80;;;;;;;22.27;53.34;99738.00;5005097;28;20058;-78
2022/05/09 10:33:43;;;;;;;6.72;3.45;;;;;;;22.31;50.85;99754.94;5004559;28;20050;-78
2022/05/09 10:36:18;;;;;;;4.50;3.55;;;;;;;22.53;54.18;99753.16;5021142;28;20049;-78
2022/05/09 10:38:49;;;;;;;7.20;3.10;;;;;;;22.35;51.94;99723.75;5007424;28;20050;-78
2022/05/09 10:41:27;;;;;;;7.07;3.55;;;;;;;22.81;48.90;99757.00;5008860;28;20496;-78
2022/05/09 10:43:59;;;;;;;4.85;3.60;;;;;;;22.61;48.29;99740.84;5005842;28;20046;-78
2022/05/09 10:46:40;;;;;;;9.13;3.63;;;;;;;22.35;49.50;99732.06;5008575;28;20057;-77
2022/05/09 10:49:18;;;;;;;5.00;3.30;;;;;;;22.59;48.98;99740.25;5007560;28;20054;-78
2022/05/09 10:51:59;;;;;;;4.65;2.63;;;;;;;22.68;46.65;99712.97;5008642;28;20072;-78
2022/05/09 10:54:31;;;;;;;3.42;3.13;;;;;;;22.78;48.53;99716.75;5009758;28;20073;-78
2022/05/09 10:57:06;;;;;;;5.35;3.55;;;;;;;22.87;47.09;99727.41;5009517;28;20057;-78
2022/05/09 10:59:40;;;;;;;4.78;3.08;;;;;;;23.08;43.77;99717.47;5003100;28;20535;-78
2022/05/09 11:02:13;;;;;;;5.32;3.00;;;;;;;23.54;44.24;99725.66;5002275;28;20057;-78
2022/05/09 11:04:41;;;;;;;3.90;3.17;;;;;;;24.08;48.17;99705.53;5006328;28;20053;-78
2022/05/09 11:07:19;;;;;;;5.88;4.10;;;;;;;24.25;49.07;99708.19;5009446;28;20053;-78
2022/05/09 11:09:59;;;;;;;3.72;2.70;;;;;;;24.42;45.22;99689.50;5009866;28;20046;-78
2022/05/09 11:12:45;;;;;;;4.82;2.80;;;;;;;24.43;44.02;99713.38;5009040;28;20493;-78
2022/05/09 11:15:21;;;;;;;4.93;2.50;;;;;;;24.41;41.01;99695.31;5007601;28;20045;-78
2022/05/09 11:17:56;;;;;;;5.25;2.78;;;;;;;24.60;41.94;99702.19;5010447;28;20053;-78
2022/05/09 11:20:31;;;;;;;4.72;3.00;;;;;;;24.91;39.03;99685.72;5003669;28;20538;-78
2022/05/09 11:23:11;;;;;;;5.82;3.35;;;;;;;24.83;39.97;99706.53;4999690;28;20081;-78
2022/05/09 11:25:59;;;;;;;3.55;2.83;;;;;;;25.25;39.98;99693.75;5004414;28;20052;-78
2022/05/09 11:28:52;;;;;;;5.25;2.75;;;;;;;25.40;38.52;99702.22;5007714;28;20040;-78
2022/05/09 11:31:27;;;;;;;4.82;2.88;;;;;;;25.26;37.65;99678.72;5046720;28;20060;-78
2022/05/09 11:34:07;;;;;;;4.97;2.70;;;;;;;25.59;39.20;99691.47;5048161;28;20078;-78
2022/05/09 11:36:46;;;;;;;3.80;2.90;;;;;;;25.78;35.58;99685.41;5002567;28;20054;-78
2022/05/09 11:39:17;;;;;;;2.97;2.50;;;;;;;25.73;38.64;99663.09;4998450;28;20480;-78
2022/05/09 11:41:53;;;;;;;5.28;2.60;;;;;;;25.08;38.17;99691.97;5018992;28;20058;-78
2022/05/09 11:44:30;;;;;;;5.50;2.67;;;;;;;24.34;40.29;99676.91;5007357;28;20057;-78
2022/05/09 11:47:19;;;;;;;5.63;2.58;;;;;;;24.27;38.46;99667.09;5007401;28;20556;-78
2022/05/09 11:50:24;;;;;;;5.37;2.87;;;;;;;23.85;38.91;99658.34;4996704;28;20057;-78
2022/05/09 11:52:52;;;;;;;4.53;2.55;;;;;;;23.89;38.98;99667.00;5007683;28;20049;-78
2022/05/09 11:55:21;;;;;;;6.20;2.80;;;;;;;24.21;38.47;99652.34;5007911;28;20057;-78